createdAt,value
2023-01-13T00:00:03.662Z,0
2023-01-13T00:01:03.838Z,0
2023-01-13T00:02:04.064Z,0
2023-01-13T00:03:04.365Z,0
2023-01-13T00:04:04.524Z,0
2023-01-13T00:05:04.693Z,0
2023-01-13T00:06:04.976Z,0
2023-01-13T00:07:05.183Z,0
2023-01-13T00:08:05.355Z,0
2023-01-13T00:09:05.540Z,0
2023-01-13T00:10:05.704Z,0
2023-01-13T00:11:05.886Z,0
2023-01-13T00:12:06.057Z,0
2023-01-13T00:13:06.241Z,0
2023-01-13T00:14:06.431Z,0
2023-01-13T00:15:06.603Z,0
2023-01-13T00:16:06.875Z,0
2023-01-13T00:17:07.316Z,0
2023-01-13T00:18:07.488Z,0
2023-01-13T00:19:07.652Z,0
2023-01-13T00:20:07.848Z,0
2023-01-13T00:21:08.009Z,0
2023-01-13T00:22:08.201Z,0
2023-01-13T00:23:08.372Z,0
2023-01-13T00:24:08.552Z,0
2023-01-13T00:25:08.745Z,0
2023-01-13T00:26:08.940Z,0
2023-01-13T00:27:09.112Z,0
2023-01-13T00:28:09.301Z,0
2023-01-13T00:29:09.502Z,0
2023-01-13T00:30:09.683Z,0
2023-01-13T00:31:09.922Z,0
2023-01-13T00:32:10.234Z,0
2023-01-13T00:33:10.421Z,0
2023-01-13T00:34:10.596Z,0
2023-01-13T00:35:10.774Z,0
2023-01-13T00:36:10.976Z,0
2023-01-13T00:37:11.152Z,0
2023-01-13T00:38:11.347Z,0
2023-01-13T00:39:11.525Z,0
2023-01-13T00:40:11.698Z,0
2023-01-13T00:41:11.934Z,0
2023-01-13T00:42:12.162Z,0
2023-01-13T00:43:12.329Z,0
2023-01-13T00:44:12.506Z,0
2023-01-13T00:45:12.676Z,0
2023-01-13T00:46:12.974Z,0
2023-01-13T00:47:13.382Z,0
2023-01-13T00:48:13.559Z,0
2023-01-13T00:49:13.736Z,0
2023-01-13T00:50:13.913Z,0
2023-01-13T00:51:14.094Z,0
2023-01-13T00:52:14.274Z,0
2023-01-13T00:53:14.480Z,0
2023-01-13T00:54:14.657Z,0
2023-01-13T00:55:14.851Z,0
2023-01-13T00:56:15.080Z,0
2023-01-13T00:57:20.028Z,0
2023-01-13T00:58:20.217Z,0
2023-01-13T00:59:20.379Z,0
2023-01-13T01:00:20.558Z,0
2023-01-13T01:01:20.871Z,0
2023-01-13T01:02:21.463Z,0
2023-01-13T01:03:21.961Z,0
2023-01-13T01:04:22.130Z,0
2023-01-13T01:05:22.292Z,0
2023-01-13T01:06:22.466Z,0
2023-01-13T01:07:22.667Z,0
2023-01-13T01:08:22.861Z,0
2023-01-13T01:09:23.046Z,0
2023-01-13T01:10:23.231Z,0
2023-01-13T01:11:23.416Z,0
2023-01-13T01:12:23.621Z,0
2023-01-13T01:13:23.800Z,0
2023-01-13T01:14:23.970Z,0
2023-01-13T01:15:24.146Z,0
2023-01-13T01:16:24.390Z,0
2023-01-13T01:17:24.754Z,0
2023-01-13T01:18:24.947Z,0
2023-01-13T01:19:25.127Z,0
2023-01-13T01:20:25.312Z,0
2023-01-13T01:21:25.518Z,0
2023-01-13T01:22:25.705Z,0
2023-01-13T01:23:25.877Z,0
2023-01-13T01:24:26.057Z,0
2023-01-13T01:25:26.251Z,0
2023-01-13T01:26:26.457Z,0
2023-01-13T01:27:26.645Z,0
2023-01-13T01:28:26.823Z,0
2023-01-13T01:29:27.003Z,0
2023-01-13T01:30:27.185Z,0
2023-01-13T01:31:27.410Z,0
2023-01-13T01:32:27.753Z,0
2023-01-13T01:33:27.939Z,0
2023-01-13T01:34:28.147Z,0
2023-01-13T01:35:28.314Z,0
2023-01-13T01:36:28.489Z,0
2023-01-13T01:37:28.696Z,0
2023-01-13T01:38:28.884Z,0
2023-01-13T01:39:29.067Z,0
2023-01-13T01:40:29.239Z,0
2023-01-13T01:41:29.410Z,0
2023-01-13T01:42:29.720Z,0
2023-01-13T01:43:29.891Z,0
2023-01-13T01:44:30.061Z,0
2023-01-13T01:45:30.254Z,0
2023-01-13T01:46:30.431Z,0
2023-01-13T01:47:30.741Z,0
2023-01-13T01:48:30.908Z,0
2023-01-13T01:49:31.095Z,0
2023-01-13T01:50:31.297Z,0
2023-01-13T01:51:31.481Z,0
2023-01-13T01:52:31.665Z,0
2023-01-13T01:53:31.849Z,0
2023-01-13T01:54:32.044Z,0
2023-01-13T01:55:32.442Z,0
2023-01-13T01:56:32.609Z,0
2023-01-13T01:57:32.780Z,0
2023-01-13T01:58:32.975Z,0
2023-01-13T01:59:33.139Z,0
2023-01-13T02:00:33.375Z,0
2023-01-13T02:01:33.878Z,0
2023-01-13T02:02:34.472Z,0
2023-01-13T02:03:34.766Z,0
2023-01-13T02:04:34.930Z,0
2023-01-13T02:05:35.151Z,0
2023-01-13T02:06:35.354Z,0
2023-01-13T02:07:35.525Z,0
2023-01-13T02:08:35.704Z,0
2023-01-13T02:09:35.902Z,0
2023-01-13T02:10:36.106Z,0
2023-01-13T02:11:36.311Z,0
2023-01-13T02:12:36.483Z,0
2023-01-13T02:13:36.668Z,0
2023-01-13T02:14:36.848Z,0
2023-01-13T02:15:37.023Z,0
2023-01-13T02:16:37.232Z,0
2023-01-13T02:17:37.590Z,0
2023-01-13T02:18:37.764Z,0
2023-01-13T02:19:37.939Z,0
2023-01-13T02:20:38.118Z,0
2023-01-13T02:21:38.301Z,0
2023-01-13T02:22:38.475Z,0
2023-01-13T02:23:38.654Z,0
2023-01-13T02:24:38.847Z,0
2023-01-13T02:25:39.105Z,0
2023-01-13T02:26:39.943Z,0
2023-01-13T02:27:40.407Z,0
2023-01-13T02:28:40.819Z,0
2023-01-13T02:29:40.993Z,0
2023-01-13T02:30:41.167Z,0
2023-01-13T02:31:41.373Z,0
2023-01-13T02:32:41.712Z,0
2023-01-13T02:33:41.888Z,0
2023-01-13T02:34:42.078Z,0
2023-01-13T02:35:42.282Z,0
2023-01-13T02:36:42.447Z,0
2023-01-13T02:37:42.617Z,0
2023-01-13T02:38:42.811Z,0
2023-01-13T02:39:43.013Z,0
2023-01-13T02:40:43.189Z,0
2023-01-13T02:41:43.355Z,0
2023-01-13T02:42:43.531Z,0
2023-01-13T02:43:43.752Z,0
2023-01-13T02:44:43.930Z,0
2023-01-13T02:45:44.136Z,0
2023-01-13T02:46:44.382Z,0
2023-01-13T02:47:44.564Z,0
2023-01-13T02:48:44.777Z,0
2023-01-13T02:49:44.961Z,0
2023-01-13T02:50:45.126Z,0
2023-01-13T02:51:45.307Z,0
2023-01-13T02:52:45.469Z,0
2023-01-13T02:53:45.638Z,0
2023-01-13T02:54:45.812Z,0
2023-01-13T02:55:45.994Z,0
2023-01-13T02:56:46.168Z,0
2023-01-13T02:57:46.336Z,0
2023-01-13T02:58:46.512Z,0
2023-01-13T02:59:46.698Z,0
2023-01-13T03:00:46.915Z,0
2023-01-13T03:01:47.217Z,0
2023-01-13T03:02:47.627Z,0
2023-01-13T03:03:48.106Z,0
2023-01-13T03:04:48.278Z,0
2023-01-13T03:05:48.468Z,0
2023-01-13T03:06:48.652Z,0
2023-01-13T03:07:48.819Z,0
2023-01-13T03:08:49.011Z,0
2023-01-13T03:09:49.182Z,0
2023-01-13T03:10:49.366Z,0
2023-01-13T03:11:49.530Z,0
2023-01-13T03:12:49.700Z,0
2023-01-13T03:13:49.869Z,0
2023-01-13T03:14:50.045Z,0
2023-01-13T03:15:50.275Z,0
2023-01-13T03:16:50.679Z,0
2023-01-13T03:17:51.141Z,0
2023-01-13T03:18:51.320Z,0
2023-01-13T03:19:51.481Z,0
2023-01-13T03:20:51.646Z,0
2023-01-13T03:21:51.824Z,0
2023-01-13T03:22:52.005Z,0
2023-01-13T03:23:52.186Z,0
2023-01-13T03:24:52.381Z,0
2023-01-13T03:25:52.565Z,0
2023-01-13T03:26:52.794Z,0
2023-01-13T03:27:52.969Z,0
2023-01-13T03:28:53.202Z,0
2023-01-13T03:29:53.377Z,0
2023-01-13T03:30:53.627Z,0
2023-01-13T03:31:54.015Z,0
2023-01-13T03:32:54.186Z,0
2023-01-13T03:33:54.355Z,0
2023-01-13T03:34:54.525Z,0
2023-01-13T03:35:54.703Z,0
2023-01-13T03:36:54.874Z,0
2023-01-13T03:37:55.189Z,0
2023-01-13T03:38:55.363Z,0
2023-01-13T03:39:55.539Z,0
2023-01-13T03:40:55.709Z,0
2023-01-13T03:41:55.885Z,0
2023-01-13T03:42:56.063Z,0
2023-01-13T03:43:56.233Z,0
2023-01-13T03:44:56.408Z,0
2023-01-13T03:45:56.645Z,0
2023-01-13T03:46:56.972Z,0
2023-01-13T03:47:57.134Z,0
2023-01-13T03:48:57.315Z,0
2023-01-13T03:49:57.494Z,0
2023-01-13T03:50:57.675Z,0
2023-01-13T03:51:57.844Z,0
2023-01-13T03:52:58.011Z,0
2023-01-13T03:53:58.191Z,0
2023-01-13T03:54:58.361Z,0
2023-01-13T03:55:58.549Z,0
2023-01-13T03:56:58.739Z,0
2023-01-13T03:57:58.960Z,0
2023-01-13T03:58:59.240Z,0
2023-01-13T03:59:59.422Z,0
2023-01-13T04:00:59.696Z,0
2023-01-13T04:02:00.454Z,0
2023-01-13T04:03:01.058Z,0
2023-01-13T04:04:01.251Z,0
2023-01-13T04:05:01.709Z,0
2023-01-13T04:06:01.884Z,0
2023-01-13T04:07:02.081Z,0
2023-01-13T04:08:02.466Z,0
2023-01-13T04:09:02.659Z,0
2023-01-13T04:10:02.830Z,0
2023-01-13T04:11:03.029Z,0
2023-01-13T04:12:03.189Z,0
2023-01-13T04:13:03.371Z,0
2023-01-13T04:14:03.541Z,0
2023-01-13T04:15:03.739Z,0
2023-01-13T04:16:03.947Z,0
2023-01-13T04:17:04.225Z,0
2023-01-13T04:18:04.391Z,0
2023-01-13T04:19:04.563Z,0
2023-01-13T04:20:04.733Z,0
2023-01-13T04:21:04.913Z,0
2023-01-13T04:22:05.096Z,0
2023-01-13T04:23:05.266Z,0
2023-01-13T04:24:05.464Z,0
2023-01-13T04:25:05.652Z,0
2023-01-13T04:26:05.844Z,0
2023-01-13T04:27:06.023Z,0
2023-01-13T04:28:06.286Z,0
2023-01-13T04:29:06.459Z,0
2023-01-13T04:30:06.652Z,0
2023-01-13T04:31:06.892Z,0
2023-01-13T04:32:07.254Z,0
2023-01-13T04:33:07.429Z,0
2023-01-13T04:34:07.801Z,0
2023-01-13T04:35:07.972Z,0
2023-01-13T04:36:08.139Z,0
2023-01-13T04:37:08.302Z,0
2023-01-13T04:38:08.475Z,0
2023-01-13T04:39:08.637Z,0
2023-01-13T04:40:08.832Z,0
2023-01-13T04:41:09.002Z,0
2023-01-13T04:42:09.179Z,0
2023-01-13T04:43:09.354Z,0
2023-01-13T04:44:09.553Z,0
2023-01-13T04:45:09.727Z,0
2023-01-13T04:46:09.945Z,0
2023-01-13T04:47:10.312Z,0
2023-01-13T04:48:10.484Z,0
2023-01-13T04:49:10.667Z,0
2023-01-13T04:50:10.878Z,0
2023-01-13T04:51:11.053Z,0
2023-01-13T04:52:11.221Z,0
2023-01-13T04:53:11.386Z,0
2023-01-13T04:54:11.577Z,0
2023-01-13T04:55:11.776Z,0
2023-01-13T04:56:11.952Z,0
2023-01-13T04:57:12.127Z,0
2023-01-13T04:58:12.291Z,0
2023-01-13T04:59:12.475Z,0
2023-01-13T05:00:12.655Z,0
2023-01-13T05:01:12.985Z,0
2023-01-13T05:02:13.489Z,0
2023-01-13T05:03:13.758Z,0
2023-01-13T05:04:13.926Z,0
2023-01-13T05:05:14.103Z,0
2023-01-13T05:06:14.287Z,0
2023-01-13T05:07:14.507Z,0
2023-01-13T05:08:14.683Z,0
2023-01-13T05:09:14.871Z,0
2023-01-13T05:10:15.036Z,0
2023-01-13T05:11:15.225Z,0
2023-01-13T05:12:15.392Z,0
2023-01-13T05:13:15.582Z,0
2023-01-13T05:14:15.767Z,0
2023-01-13T05:15:15.954Z,0
2023-01-13T05:16:16.228Z,0
2023-01-13T05:17:16.562Z,0
2023-01-13T05:18:16.740Z,0
2023-01-13T05:19:16.928Z,0
2023-01-13T05:20:17.099Z,0
2023-01-13T05:21:17.311Z,0
2023-01-13T05:22:17.485Z,0
2023-01-13T05:23:17.689Z,0
2023-01-13T05:24:17.860Z,0
2023-01-13T05:25:18.055Z,0
2023-01-13T05:26:18.250Z,0
2023-01-13T05:27:18.433Z,0
2023-01-13T05:28:18.621Z,0
2023-01-13T05:29:18.804Z,0
2023-01-13T05:30:19.020Z,0
2023-01-13T05:31:19.248Z,0
2023-01-13T05:32:19.625Z,0
2023-01-13T05:33:19.812Z,0
2023-01-13T05:34:19.989Z,0
2023-01-13T05:35:20.161Z,0
2023-01-13T05:36:20.361Z,0
2023-01-13T05:37:20.538Z,0
2023-01-13T05:38:20.710Z,0
2023-01-13T05:39:20.880Z,0
2023-01-13T05:40:21.061Z,0
2023-01-13T05:41:21.238Z,0
2023-01-13T05:42:21.429Z,0
2023-01-13T05:43:21.607Z,0
2023-01-13T05:44:22.086Z,0
2023-01-13T05:45:22.263Z,0
2023-01-13T05:46:22.480Z,0
2023-01-13T05:47:22.936Z,0
2023-01-13T05:48:23.117Z,0
2023-01-13T05:49:23.290Z,0
2023-01-13T05:50:23.470Z,0
2023-01-13T05:51:23.649Z,0
2023-01-13T05:52:23.834Z,0
2023-01-13T05:53:24.003Z,0
2023-01-13T05:54:24.193Z,0
2023-01-13T05:55:24.380Z,0
2023-01-13T05:56:24.583Z,0
2023-01-13T05:57:24.754Z,0
2023-01-13T05:58:24.925Z,0
2023-01-13T05:59:25.105Z,0
2023-01-13T06:00:25.273Z,0
2023-01-13T06:01:25.572Z,0
2023-01-13T06:02:25.910Z,0
2023-01-13T06:03:26.081Z,0
2023-01-13T06:04:26.291Z,0
2023-01-13T06:05:26.619Z,0
2023-01-13T06:06:26.803Z,0
2023-01-13T06:07:26.981Z,0
2023-01-13T06:08:27.157Z,0
2023-01-13T06:09:27.372Z,0
2023-01-13T06:10:27.553Z,0
2023-01-13T06:11:27.743Z,0
2023-01-13T06:12:27.941Z,0
2023-01-13T06:13:28.119Z,0
2023-01-13T06:14:28.294Z,0
2023-01-13T06:15:28.477Z,0
2023-01-13T06:16:28.793Z,0
2023-01-13T06:17:29.198Z,0
2023-01-13T06:18:29.379Z,0
2023-01-13T06:19:29.565Z,0
2023-01-13T06:20:29.745Z,0
2023-01-13T06:21:31.394Z,0
2023-01-13T06:22:33.535Z,0
2023-01-13T06:23:33.696Z,0
2023-01-13T06:24:33.867Z,0
2023-01-13T06:25:34.050Z,0
2023-01-13T06:26:34.255Z,0
2023-01-13T06:27:34.439Z,0
2023-01-13T06:28:34.612Z,0
2023-01-13T06:29:34.790Z,0
2023-01-13T06:30:34.964Z,0
2023-01-13T06:31:35.174Z,0
2023-01-13T06:32:35.426Z,0
2023-01-13T06:33:35.666Z,0
2023-01-13T06:34:35.838Z,0
2023-01-13T06:35:36.026Z,0
2023-01-13T06:36:36.213Z,0
2023-01-13T06:37:36.405Z,0
2023-01-13T06:38:36.583Z,0
2023-01-13T06:39:36.755Z,0
2023-01-13T06:40:36.930Z,0
2023-01-13T06:41:37.121Z,0
2023-01-13T06:42:37.301Z,0
2023-01-13T06:43:37.474Z,0
2023-01-13T06:44:37.649Z,0
2023-01-13T06:45:37.825Z,0
2023-01-13T06:46:38.059Z,0
2023-01-13T06:47:38.398Z,0
2023-01-13T06:48:38.569Z,0
2023-01-13T06:49:38.744Z,0
2023-01-13T06:50:39.046Z,0
2023-01-13T06:51:39.208Z,2
2023-01-13T06:52:39.391Z,3
2023-01-13T06:53:39.565Z,4
2023-01-13T06:54:39.751Z,5
2023-01-13T06:55:39.933Z,7
2023-01-13T06:56:40.138Z,9
2023-01-13T06:57:40.325Z,11
2023-01-13T06:58:40.499Z,13
2023-01-13T06:59:40.673Z,15
2023-01-13T07:00:40.892Z,17
2023-01-13T07:01:41.364Z,19
2023-01-13T07:02:42.435Z,24
2023-01-13T07:03:42.801Z,24
2023-01-13T07:04:43.011Z,27
2023-01-13T07:05:43.238Z,30
2023-01-13T07:06:43.435Z,30
2023-01-13T07:07:43.648Z,33
2023-01-13T07:08:43.816Z,33
2023-01-13T07:09:43.997Z,37
2023-01-13T07:10:44.170Z,41
2023-01-13T07:11:44.358Z,47
2023-01-13T07:12:44.529Z,58
2023-01-13T07:13:44.707Z,65
2023-01-13T07:14:44.903Z,73
2023-01-13T07:15:45.074Z,81
2023-01-13T07:16:45.268Z,90.96
2023-01-13T07:17:45.580Z,110
2023-01-13T07:18:45.753Z,110
2023-01-13T07:19:45.958Z,130
2023-01-13T07:20:46.132Z,130
2023-01-13T07:21:46.304Z,150
2023-01-13T07:22:46.479Z,150
2023-01-13T07:23:46.661Z,169.92
2023-01-13T07:24:46.856Z,169.92
2023-01-13T07:25:47.032Z,169.92
2023-01-13T07:26:47.207Z,189.92
2023-01-13T07:27:47.396Z,189.92
2023-01-13T07:28:47.593Z,209.92
2023-01-13T07:29:47.774Z,209.92
2023-01-13T07:30:47.960Z,240
2023-01-13T07:31:49.921Z,240
2023-01-13T07:32:50.821Z,269.92
2023-01-13T07:33:51.035Z,269.92
2023-01-13T07:34:51.211Z,300
2023-01-13T07:35:51.405Z,300
2023-01-13T07:36:51.587Z,300
2023-01-13T07:37:51.751Z,329.92
2023-01-13T07:38:53.952Z,329.92
2023-01-13T07:39:55.216Z,339.84
2023-01-13T07:40:55.394Z,369.92
2023-01-13T07:41:55.587Z,369.92
2023-01-13T07:42:55.765Z,409.92
2023-01-13T07:43:55.950Z,459.84
2023-01-13T07:44:56.135Z,509.76
2023-01-13T07:45:56.347Z,509.76
2023-01-13T07:46:56.663Z,569.92
2023-01-13T07:47:56.862Z,569.92
2023-01-13T07:48:57.059Z,569.92
2023-01-13T07:49:57.241Z,629.76
2023-01-13T07:50:57.415Z,629.76
2023-01-13T07:51:57.597Z,629.76
2023-01-13T07:52:57.768Z,629.76
2023-01-13T07:53:57.959Z,629.76
2023-01-13T07:54:58.125Z,629.76
2023-01-13T07:55:58.286Z,629.76
2023-01-13T07:56:58.470Z,629.76
2023-01-13T07:57:58.642Z,629.76
2023-01-13T07:58:58.810Z,629.76
2023-01-13T07:59:58.968Z,669.44
2023-01-13T08:00:59.365Z,739.84
2023-01-13T08:02:00.139Z,739.84
2023-01-13T08:03:01.281Z,739.84
2023-01-13T08:04:01.810Z,739.84
2023-01-13T08:05:01.995Z,739.84
2023-01-13T08:06:02.227Z,739.84
2023-01-13T08:07:02.603Z,739.84
2023-01-13T08:08:02.794Z,739.84
2023-01-13T08:09:03.005Z,739.84
2023-01-13T08:10:03.190Z,739.84
2023-01-13T08:11:03.371Z,789.76
2023-01-13T08:12:03.545Z,789.76
2023-01-13T08:13:04.133Z,880
2023-01-13T08:14:04.346Z,880
2023-01-13T08:15:04.519Z,880
2023-01-13T08:16:04.681Z,880
2023-01-13T08:17:04.884Z,880
2023-01-13T08:18:05.053Z,880
2023-01-13T08:19:05.228Z,880
2023-01-13T08:20:05.397Z,880
2023-01-13T08:21:05.593Z,789.76
2023-01-13T08:22:05.832Z,709.76
2023-01-13T08:23:07.279Z,709.76
2023-01-13T08:24:07.908Z,709.76
2023-01-13T08:25:08.087Z,709.76
2023-01-13T08:26:08.276Z,709.76
2023-01-13T08:27:08.467Z,789.76
2023-01-13T08:28:08.653Z,869.76
2023-01-13T08:29:08.867Z,869.76
2023-01-13T08:30:09.088Z,969.6
2023-01-13T08:31:09.509Z,1079.68
2023-01-13T08:32:09.907Z,1200
2023-01-13T08:33:10.086Z,1200
2023-01-13T08:34:10.320Z,1319.68
2023-01-13T08:35:10.520Z,1319.68
2023-01-13T08:36:10.702Z,1459.2
2023-01-13T08:37:10.882Z,1459.2
2023-01-13T08:38:11.082Z,1459.2
2023-01-13T08:39:11.259Z,1619.2
2023-01-13T08:40:11.473Z,1799.68
2023-01-13T08:41:11.670Z,1799.68
2023-01-13T08:42:11.924Z,1799.68
2023-01-13T08:43:12.095Z,1978.88
2023-01-13T08:44:12.288Z,1978.88
2023-01-13T08:45:12.492Z,1978.88
2023-01-13T08:46:12.756Z,2179.84
2023-01-13T08:47:13.253Z,2179.84
2023-01-13T08:48:13.496Z,2419.2
2023-01-13T08:49:13.811Z,2718.72
2023-01-13T08:50:14.093Z,2997.76
2023-01-13T08:51:14.275Z,3878.4
2023-01-13T08:52:14.467Z,7336.96
2023-01-13T08:53:14.646Z,7336.96
2023-01-13T08:54:14.834Z,9999.36
2023-01-13T08:55:15.023Z,11192.32
2023-01-13T08:56:15.198Z,9917.44
2023-01-13T08:57:15.462Z,10997.76
2023-01-13T08:58:16.335Z,10997.76
2023-01-13T08:59:16.656Z,10997.76
2023-01-13T09:00:17.092Z,8719.36
2023-01-13T09:01:17.733Z,11192.32
2023-01-13T09:02:18.318Z,18391.04
2023-01-13T09:03:19.019Z,23388.16
2023-01-13T09:04:19.269Z,25784.32
2023-01-13T09:05:19.837Z,25784.32
2023-01-13T09:06:20.032Z,28590.08
2023-01-13T09:07:20.223Z,28590.08
2023-01-13T09:08:20.439Z,28590.08
2023-01-13T09:09:20.616Z,28590.08
2023-01-13T09:10:20.842Z,22384.64
2023-01-13T09:11:21.022Z,24985.6
2023-01-13T09:12:21.181Z,27586.56
2023-01-13T09:13:21.358Z,27586.56
2023-01-13T09:14:21.550Z,27586.56
2023-01-13T09:15:21.740Z,27586.56
2023-01-13T09:16:21.971Z,30597.12
2023-01-13T09:17:22.152Z,30597.12
2023-01-13T09:18:22.344Z,30597.12
2023-01-13T09:19:22.561Z,30597.12
2023-01-13T09:20:22.743Z,30597.12
2023-01-13T09:21:23.047Z,30597.12
2023-01-13T09:22:23.259Z,33792
2023-01-13T09:23:23.436Z,33792
2023-01-13T09:24:23.618Z,37191.68
2023-01-13T09:25:23.808Z,37191.68
2023-01-13T09:26:24.013Z,37191.68
2023-01-13T09:27:24.209Z,37191.68
2023-01-13T09:28:24.400Z,37191.68
2023-01-13T09:29:24.578Z,37191.68
2023-01-13T09:30:24.798Z,37191.68
2023-01-13T09:31:25.063Z,37191.68
2023-01-13T09:32:25.556Z,37191.68
2023-01-13T09:33:25.764Z,32993.28
2023-01-13T09:34:25.971Z,28385.28
2023-01-13T09:35:26.167Z,21995.52
2023-01-13T09:36:26.597Z,15790.08
2023-01-13T09:37:26.780Z,12195.84
2023-01-13T09:38:27.009Z,9297.92
2023-01-13T09:39:27.185Z,7075.84
2023-01-13T09:40:27.375Z,5478.4
2023-01-13T09:41:27.560Z,4879.36
2023-01-13T09:42:27.765Z,3898.88
2023-01-13T09:43:28.005Z,3479.04
2023-01-13T09:44:28.196Z,3479.04
2023-01-13T09:45:28.387Z,3118.08
2023-01-13T09:46:28.616Z,3118.08
2023-01-13T09:47:29.114Z,3939.84
2023-01-13T09:48:29.292Z,3537.92
2023-01-13T09:49:29.482Z,3138.56
2023-01-13T09:50:29.660Z,2499.84
2023-01-13T09:51:29.920Z,2499.84
2023-01-13T09:52:30.376Z,2240
2023-01-13T09:53:30.574Z,1779.2
2023-01-13T09:54:30.761Z,1779.2
2023-01-13T09:55:30.946Z,1600
2023-01-13T09:56:31.125Z,1600
2023-01-13T09:57:31.311Z,1600
2023-01-13T09:58:31.507Z,1600
2023-01-13T09:59:31.683Z,1600
2023-01-13T10:00:31.862Z,1600
2023-01-13T10:01:32.151Z,1760
2023-01-13T10:02:32.565Z,1939.2
2023-01-13T10:03:32.815Z,2159.36
2023-01-13T10:04:33.402Z,2379.52
2023-01-13T10:05:33.708Z,2379.52
2023-01-13T10:06:33.898Z,2618.88
2023-01-13T10:07:34.073Z,2618.88
2023-01-13T10:08:34.251Z,2618.88
2023-01-13T10:09:34.432Z,2959.36
2023-01-13T10:10:34.610Z,3819.52
2023-01-13T10:11:34.798Z,6097.92
2023-01-13T10:12:35.012Z,7618.56
2023-01-13T10:13:35.210Z,10997.76
2023-01-13T10:14:35.427Z,14192.64
2023-01-13T10:15:35.619Z,19998.72
2023-01-13T10:16:35.826Z,19998.72
2023-01-13T10:17:36.006Z,21995.52
2023-01-13T10:18:36.179Z,17797.12
2023-01-13T10:19:36.387Z,15790.08
2023-01-13T10:20:36.609Z,15790.08
2023-01-13T10:21:36.854Z,12195.84
2023-01-13T10:22:37.084Z,9077.76
2023-01-13T10:23:37.296Z,7075.84
2023-01-13T10:24:37.480Z,6277.12
2023-01-13T10:25:37.682Z,5637.12
2023-01-13T10:26:38.054Z,4999.68
2023-01-13T10:27:38.254Z,4459.52
2023-01-13T10:28:38.456Z,4459.52
2023-01-13T10:29:38.643Z,4459.52
2023-01-13T10:30:38.825Z,4459.52
2023-01-13T10:31:39.057Z,3898.88
2023-01-13T10:32:39.423Z,2997.76
2023-01-13T10:33:39.617Z,2339.84
2023-01-13T10:34:39.799Z,2099.2
2023-01-13T10:35:39.968Z,2099.2
2023-01-13T10:36:40.137Z,2099.2
2023-01-13T10:37:40.313Z,2099.2
2023-01-13T10:38:40.533Z,2099.2
2023-01-13T10:39:40.733Z,2099.2
2023-01-13T10:40:40.934Z,2339.84
2023-01-13T10:41:41.107Z,2599.68
2023-01-13T10:42:41.288Z,3179.52
2023-01-13T10:43:41.660Z,3499.52
2023-01-13T10:44:41.857Z,3857.92
2023-01-13T10:45:42.023Z,4359.68
2023-01-13T10:46:42.261Z,4879.36
2023-01-13T10:47:42.622Z,5396.48
2023-01-13T10:48:42.813Z,5396.48
2023-01-13T10:49:43.010Z,5975.04
2023-01-13T10:50:43.193Z,5975.04
2023-01-13T10:51:43.384Z,5975.04
2023-01-13T10:52:43.603Z,7598.08
2023-01-13T10:53:43.785Z,8437.76
2023-01-13T10:54:44.004Z,9635.84
2023-01-13T10:55:44.176Z,10792.96
2023-01-13T10:56:44.353Z,10792.96
2023-01-13T10:57:44.537Z,9559.04
2023-01-13T10:58:44.740Z,8535.04
2023-01-13T10:59:44.914Z,7680
2023-01-13T11:00:45.288Z,8678.4
2023-01-13T11:01:45.623Z,8775.68
2023-01-13T11:02:46.280Z,8775.68
2023-01-13T11:03:46.620Z,7715.84
2023-01-13T11:04:46.855Z,7715.84
2023-01-13T11:05:47.126Z,6937.6
2023-01-13T11:06:47.328Z,6937.6
2023-01-13T11:07:47.528Z,6937.6
2023-01-13T11:08:47.708Z,6937.6
2023-01-13T11:09:47.938Z,6937.6
2023-01-13T11:10:48.120Z,6195.2
2023-01-13T11:11:48.305Z,6195.2
2023-01-13T11:12:48.471Z,5478.4
2023-01-13T11:13:48.661Z,4917.76
2023-01-13T11:14:48.847Z,3898.88
2023-01-13T11:15:49.049Z,3499.52
2023-01-13T11:16:53.416Z,3499.52
2023-01-13T11:17:54.184Z,3898.88
2023-01-13T11:18:54.354Z,4318.72
2023-01-13T11:19:54.530Z,4759.04
2023-01-13T11:20:54.708Z,5416.96
2023-01-13T11:21:54.880Z,6097.92
2023-01-13T11:22:55.077Z,6097.92
2023-01-13T11:23:55.264Z,6097.92
2023-01-13T11:24:55.475Z,4759.04
2023-01-13T11:25:55.676Z,4277.76
2023-01-13T11:26:55.851Z,3799.04
2023-01-13T11:27:56.030Z,3417.6
2023-01-13T11:28:56.215Z,3038.72
2023-01-13T11:29:56.394Z,2718.72
2023-01-13T11:30:56.613Z,2419.2
2023-01-13T11:31:57.007Z,2159.36
2023-01-13T11:32:57.186Z,2159.36
2023-01-13T11:33:57.355Z,1920
2023-01-13T11:34:57.536Z,1719.04
2023-01-13T11:35:57.717Z,1719.04
2023-01-13T11:36:57.896Z,1719.04
2023-01-13T11:37:58.077Z,1719.04
2023-01-13T11:38:58.261Z,1539.84
2023-01-13T11:39:58.460Z,1539.84
2023-01-13T11:40:58.633Z,1539.84
2023-01-13T11:41:58.809Z,1539.84
2023-01-13T11:42:58.972Z,1539.84
2023-01-13T11:43:59.147Z,1719.04
2023-01-13T11:44:59.320Z,1899.52
2023-01-13T11:45:59.515Z,1899.52
2023-01-13T11:46:59.748Z,1899.52
2023-01-13T11:48:00.334Z,1899.52
2023-01-13T11:49:00.512Z,1899.52
2023-01-13T11:50:00.688Z,1899.52
2023-01-13T11:51:00.872Z,2138.88
2023-01-13T11:52:01.083Z,2359.04
2023-01-13T11:53:01.248Z,2639.36
2023-01-13T11:54:01.422Z,3338.24
2023-01-13T11:55:01.598Z,4259.84
2023-01-13T11:56:01.794Z,4697.6
2023-01-13T11:57:01.978Z,5199.36
2023-01-13T11:58:02.178Z,5199.36
2023-01-13T11:59:02.359Z,5199.36
2023-01-13T12:00:02.551Z,5199.36
2023-01-13T12:01:02.804Z,4638.72
2023-01-13T12:02:03.198Z,4057.6
2023-01-13T12:03:03.575Z,3217.92
2023-01-13T12:04:03.937Z,3217.92
2023-01-13T12:05:04.124Z,2859.52
2023-01-13T12:06:04.305Z,2259.2
2023-01-13T12:07:04.489Z,2019.84
2023-01-13T12:08:04.665Z,1779.2
2023-01-13T12:09:04.868Z,1779.2
2023-01-13T12:10:05.300Z,1600
2023-01-13T12:11:13.646Z,1779.2
2023-01-13T12:12:13.950Z,1779.2
2023-01-13T12:13:14.151Z,1959.68
2023-01-13T12:14:14.337Z,1959.68
2023-01-13T12:15:14.544Z,2159.36
2023-01-13T12:16:14.803Z,2419.2
2023-01-13T12:17:15.096Z,2698.24
2023-01-13T12:18:15.314Z,2698.24
2023-01-13T12:19:15.713Z,2698.24
2023-01-13T12:20:15.923Z,2400
2023-01-13T12:21:16.112Z,2138.88
2023-01-13T12:22:16.312Z,1920
2023-01-13T12:23:16.539Z,1920
2023-01-13T12:24:16.738Z,1719.04
2023-01-13T12:25:16.934Z,1539.84
2023-01-13T12:26:17.132Z,1539.84
2023-01-13T12:27:17.312Z,1539.84
2023-01-13T12:28:17.771Z,1539.84
2023-01-13T12:29:18.111Z,1539.84
2023-01-13T12:30:18.345Z,1539.84
2023-01-13T12:31:18.560Z,1699.84
2023-01-13T12:32:18.944Z,1879.04
2023-01-13T12:33:19.139Z,2080
2023-01-13T12:34:19.321Z,2080
2023-01-13T12:35:19.519Z,2298.88
2023-01-13T12:36:19.704Z,2298.88
2023-01-13T12:37:19.898Z,2298.88
2023-01-13T12:38:20.083Z,2059.52
2023-01-13T12:39:20.253Z,1818.88
2023-01-13T12:40:20.441Z,1440
2023-01-13T12:41:20.626Z,1440
2023-01-13T12:42:20.839Z,1280
2023-01-13T12:43:21.020Z,1280
2023-01-13T12:44:21.190Z,1280
2023-01-13T12:45:21.386Z,1139.84
2023-01-13T12:46:21.635Z,1019.52
2023-01-13T12:47:21.842Z,1019.52
2023-01-13T12:48:22.042Z,1019.52
2023-01-13T12:49:22.224Z,1019.52
2023-01-13T12:50:22.413Z,1259.52
2023-01-13T12:51:22.665Z,1579.52
2023-01-13T12:52:22.855Z,2039.04
2023-01-13T12:53:23.027Z,2579.2
2023-01-13T12:54:23.203Z,3737.6
2023-01-13T12:55:23.398Z,4119.04
2023-01-13T12:56:23.580Z,4538.88
2023-01-13T12:57:23.766Z,4538.88
2023-01-13T12:58:23.954Z,4538.88
2023-01-13T12:59:24.129Z,4999.68
2023-01-13T13:00:24.321Z,4999.68
2023-01-13T13:01:24.650Z,4999.68
2023-01-13T13:02:25.163Z,4999.68
2023-01-13T13:03:25.466Z,4999.68
2023-01-13T13:04:25.644Z,4497.92
2023-01-13T13:05:25.835Z,3939.84
2023-01-13T13:06:26.035Z,3097.6
2023-01-13T13:07:26.199Z,2419.2
2023-01-13T13:08:26.370Z,1839.36
2023-01-13T13:09:26.567Z,1419.52
2023-01-13T13:10:26.766Z,1099.52
2023-01-13T13:11:26.964Z,1099.52
2023-01-13T13:12:27.184Z,989.44
2023-01-13T13:13:27.363Z,989.44
2023-01-13T13:14:27.543Z,1259.52
2023-01-13T13:15:27.795Z,1600
2023-01-13T13:16:28.039Z,2379.52
2023-01-13T13:17:28.558Z,3118.08
2023-01-13T13:18:28.728Z,3438.08
2023-01-13T13:19:28.936Z,3438.08
2023-01-13T13:20:29.107Z,3438.08
2023-01-13T13:21:29.281Z,3438.08
2023-01-13T13:22:29.462Z,3038.72
2023-01-13T13:23:29.634Z,2698.24
2023-01-13T13:24:29.846Z,2698.24
2023-01-13T13:25:30.338Z,2698.24
2023-01-13T13:26:30.524Z,3018.24
2023-01-13T13:27:30.698Z,3338.24
2023-01-13T13:28:30.861Z,3338.24
2023-01-13T13:29:31.043Z,3778.56
2023-01-13T13:30:31.375Z,4239.36
2023-01-13T13:31:31.740Z,4697.6
2023-01-13T13:32:31.931Z,4697.6
2023-01-13T13:33:32.106Z,4697.6